• Join FlightAware (Why Join?)
  • Login
  • US Flag 
06:35PM EST


 

Airport Tracker/Info


-or-


 

Live Flight TrackerFlight Track Log ✈ GUG700 ✈ 26-May-2012 ✈ MHTG / TGU - MGGT / GUA

Flight Track Log - Related Links

Times and Time Zones

All times are in EDT time to prevent confusion due to time zone crossing. See the GUG700 flight status page for this flight to view local times or setup timezone preferences in your user account.

Time Position Orientation Groundspeed Altitude Reporting Facility
EDT Latitude Longitude Course Direction KTS MPH feet Rate Location/Type
07:17PM 14.2325 -88.2719 279° West  Level Estimated
07:18PM 14.2422 -88.3321 279° West  Level Estimated
07:19PM 14.2518 -88.3923 279° West  Level Estimated
07:20PM 14.2615 -88.4525 279° West  Level Estimated
07:21PM 14.2711 -88.5127 279° West  Level Estimated
07:22PM 14.2807 -88.5729 279° West  Level Estimated
07:23PM 14.2902 -88.6332 279° West  Level Estimated
07:24PM 14.2998 -88.6934 279° West  Level Estimated
07:25PM 14.3094 -88.7536 279° West  Level Estimated
07:26PM 14.3189 -88.8139 279° West  Level Estimated
07:27PM 14.3284 -88.8741 279° West  Level Estimated
07:28PM 14.3379 -88.9344 279° West  Level Estimated
07:29PM 14.3474 -88.9946 279° West  Level Estimated
07:30PM 14.3569 -89.0549 279° West  Level Estimated
07:31PM 14.3663 -89.1152 279° West  Level Estimated
07:32PM 14.3757 -89.1755 279° West  Level Estimated
07:33PM 14.3852 -89.2357 279° West  Level Estimated
07:34PM 14.3946 -89.2960 279° West  Level Estimated
07:35PM 14.4040 -89.3563 279° West  Level Estimated
07:36PM 14.4134 -89.4166 279° West  Level Estimated
07:37PM 14.4227 -89.4769 279° West  Level Estimated
07:38PM 14.4321 -89.5372 279° West  Level Estimated
07:39PM 14.4414 -89.5975 279° West  Level Estimated
07:40PM 14.4507 -89.6578 279° West  Level Estimated
07:41PM 14.4600 -89.7181 279° West  Level Estimated
07:42PM 14.4693 -89.7785 279° West  Level Estimated
07:43PM 14.4786 -89.8388 279° West  Level Estimated
07:44PM 14.4878 -89.8991 279° West  Level Estimated
07:45PM 14.4971 -89.9595 279° West  Level Estimated
07:46PM 14.5063 -90.0198 279° West  Level Estimated
07:47PM 14.5155 -90.0801 279° West  Level Estimated
07:48PM 14.5247 -90.1405 279° West  Level Estimated
07:49PM 14.5339 -90.2009 279° West  Level Estimated
07:50PM 14.5430 -90.2612 279° West  Level Estimated
07:51PM 14.5522 -90.3216 279° West  Level Estimated
07:52PM 14.5613 -90.3820 279° West  Level Estimated
07:53PM 14.5704 -90.4423 279° West  Level Estimated
07:54PM 14.5795 -90.5027 279° West  Level Estimated
07:55PM 14.5886 -90.5631 99° East  Level Estimated
07:56PM 14.5795 -90.5027 279° West  Level Estimated
07:57PM 14.5886 -90.5631 99° East  Level Estimated
07:58PM 14.5795 -90.5027 279° West  Level Estimated
07:59PM 14.5886 -90.5631 99° East  Level Estimated
08:00PM 14.5795 -90.5027 279° West  Level Estimated
08:01PM 14.5886 -90.5631 99° East  Level Estimated
08:02PM 14.5795 -90.5027 279° West  Level Estimated
08:03PM 14.5886 -90.5631 99° East  Level Estimated
08:04PM 14.5795 -90.5027 279° West  Level Estimated
08:05PM 14.5886 -90.5631 99° East  Level Estimated
08:06PM 14.5795 -90.5027 279° West  Level Estimated
08:07PM 14.5886 -90.5631 99° East  Level Estimated
08:08PM 14.5795 -90.5027 279° West  Level Estimated
08:09PM 14.5886 -90.5631 99° East  Level Estimated
08:10PM 14.5795 -90.5027 99° East  Level Estimated